Time;durP1;ratioP1;P1;durP2;ratioP2;P2;SDS_P1;SDS_P2;PMS_P1;PMS_P2;Temp;Humidity;BMP_temperature;BMP_pressure;BME280_temperature;BME280_humidity;BME280_pressure;Samples;Min_cycle;Max_cycle;Signal;HPM_P1;HPM_P2
2023/05/09 00:01:32;;;;;;;35.37;19.50;;;;;;;14.25;100.00;94930.72;5075030;28;20193;-76
2023/05/09 00:03:59;;;;;;;38.57;19.50;;;;;;;14.20;100.00;94924.38;5079854;28;20736;-75
2023/05/09 00:06:32;;;;;;;32.53;17.17;;;;;;;14.20;100.00;94919.13;5076468;28;20196;-77
2023/05/09 00:08:59;;;;;;;35.20;18.27;;;;;;;14.10;100.00;94921.56;5063566;28;20647;-76
2023/05/09 00:11:59;;;;;;;35.50;18.60;;;;;;;14.02;100.00;94918.53;5081054;28;20224;-77
2023/05/09 00:14:32;;;;;;;41.40;21.20;;;;;;;13.99;100.00;94921.63;5077534;28;20196;-77
2023/05/09 00:17:00;;;;;;;46.43;27.10;;;;;;;13.98;100.00;94923.44;5071920;28;20216;-76
2023/05/09 00:19:27;;;;;;;60.00;29.70;;;;;;;13.99;100.00;94925.03;5075632;28;20205;-77
2023/05/09 00:21:54;;;;;;;54.03;28.43;;;;;;;14.02;100.00;94921.94;5078541;28;20208;-77
2023/05/09 00:24:21;;;;;;;55.50;30.17;;;;;;;14.08;100.00;94922.84;5074630;28;20571;-77
2023/05/09 00:26:47;;;;;;;59.93;29.33;;;;;;;14.08;100.00;94915.00;5076490;28;20255;-77
2023/05/09 00:29:14;;;;;;;41.43;23.73;;;;;;;14.11;100.00;94911.91;5078179;28;20552;-77
2023/05/09 00:31:41;;;;;;;43.37;24.17;;;;;;;14.12;100.00;94911.66;5075886;28;20224;-76
2023/05/09 00:34:09;;;;;;;39.93;21.77;;;;;;;14.13;100.00;94908.03;5075464;28;20203;-77
2023/05/09 00:36:36;;;;;;;34.53;18.30;;;;;;;14.09;100.00;94914.75;5079955;28;20274;-76
2023/05/09 00:39:04;;;;;;;29.93;16.73;;;;;;;14.11;100.00;94907.47;5074465;28;20205;-76
2023/05/09 00:41:31;;;;;;;28.87;16.27;;;;;;;14.03;100.00;94900.00;5075493;28;20205;-77
2023/05/09 00:43:57;;;;;;;38.10;19.47;;;;;;;14.06;100.00;94904.75;5079970;28;20201;-76
2023/05/09 00:46:24;;;;;;;34.60;18.23;;;;;;;14.08;100.00;94907.94;5074662;28;20573;-77
2023/05/09 00:48:52;;;;;;;36.97;19.23;;;;;;;14.11;100.00;94906.69;5069774;28;20208;-77
2023/05/09 00:51:21;;;;;;;16.13;10.43;;;;;;;14.13;100.00;94905.44;5076816;28;20198;-77
2023/05/09 00:53:48;;;;;;;11.27;8.03;;;;;;;14.09;100.00;94906.91;5070877;28;20246;-77
2023/05/09 00:56:15;;;;;;;9.20;5.77;;;;;;;14.07;100.00;94905.56;5073638;28;20274;-77
2023/05/09 00:58:42;;;;;;;9.17;5.97;;;;;;;14.04;100.00;94901.59;5079699;28;20331;-77
2023/05/09 01:01:09;;;;;;;8.73;5.87;;;;;;;14.03;100.00;94904.44;5072570;28;20197;-77
2023/05/09 01:03:39;;;;;;;8.07;5.50;;;;;;;14.03;100.00;94893.97;5075040;28;20327;-77
2023/05/09 01:06:13;;;;;;;9.07;5.23;;;;;;;13.96;100.00;94899.34;5077528;28;20324;-77
2023/05/09 01:08:47;;;;;;;5.60;5.00;;;;;;;13.86;100.00;94883.47;5074879;28;20259;-77
2023/05/09 01:11:22;;;;;;;6.63;4.30;;;;;;;13.91;100.00;94891.41;5073137;28;20534;-78
2023/05/09 01:13:57;;;;;;;7.33;5.00;;;;;;;13.90;100.00;94892.44;5072361;28;20199;-77
2023/05/09 01:16:32;;;;;;;8.03;4.80;;;;;;;13.91;100.00;94898.47;5074544;28;20292;-77
2023/05/09 01:19:08;;;;;;;5.83;4.70;;;;;;;13.96;100.00;94901.16;5072089;28;20193;-77
2023/05/09 01:21:35;;;;;;;4.80;4.30;;;;;;;13.95;100.00;94897.75;5073988;28;20770;-77
2023/05/09 01:24:34;;;;;;;5.77;4.23;;;;;;;13.95;100.00;94900.38;5075701;28;20232;-77
2023/05/09 01:27:16;;;;;;;5.63;4.43;;;;;;;14.01;100.00;94902.06;5071637;28;20655;-75
2023/05/09 01:29:47;;;;;;;4.83;4.17;;;;;;;13.97;100.00;94894.91;5074646;28;20262;-75
2023/05/09 01:32:18;;;;;;;6.87;4.67;;;;;;;13.95;100.00;94896.97;5076131;28;20204;-75
2023/05/09 01:34:46;;;;;;;5.43;4.60;;;;;;;13.91;100.00;94908.91;5074954;28;20193;-75
2023/05/09 01:37:15;;;;;;;5.37;4.50;;;;;;;13.93;100.00;94906.84;5072413;28;20213;-75
2023/05/09 01:39:46;;;;;;;5.57;4.57;;;;;;;13.96;100.00;94906.41;5076129;28;20647;-75
2023/05/09 01:42:15;;;;;;;6.97;4.37;;;;;;;13.96;100.00;94901.97;5077272;28;20637;-76
2023/05/09 01:44:47;;;;;;;6.60;4.50;;;;;;;13.99;100.00;94903.31;5072107;28;20201;-76
2023/05/09 01:47:15;;;;;;;5.07;4.57;;;;;;;13.90;100.00;94889.03;5072464;28;21004;-76
2023/05/09 01:49:43;;;;;;;5.37;4.43;;;;;;;13.98;100.00;94910.34;5084862;28;20197;-76
2023/05/09 01:52:15;;;;;;;5.97;4.50;;;;;;;13.99;100.00;94909.34;5079325;28;20242;-75
2023/05/09 01:54:43;;;;;;;5.17;4.50;;;;;;;13.96;100.00;94915.03;5077430;28;20197;-76
2023/05/09 01:57:11;;;;;;;6.00;4.63;;;;;;;13.99;100.00;94911.97;5086842;28;20220;-76
2023/05/09 01:59:40;;;;;;;6.43;4.83;;;;;;;14.05;100.00;94912.84;5078582;28;20194;-76
2023/05/09 02:02:09;;;;;;;5.77;4.23;;;;;;;14.04;100.00;94908.63;5075651;28;20251;-76
2023/05/09 02:04:36;;;;;;;6.20;4.57;;;;;;;14.05;100.00;94908.38;5083849;28;20790;-75
2023/05/09 02:07:05;;;;;;;7.23;4.87;;;;;;;14.08;99.79;94910.53;5080730;28;20339;-76
2023/05/09 02:09:32;;;;;;;6.40;4.80;;;;;;;14.10;99.59;94905.88;5075467;28;20194;-76
2023/05/09 02:11:58;;;;;;;5.97;4.33;;;;;;;14.09;99.55;94906.91;5085286;28;20647;-76
2023/05/09 02:14:26;;;;;;;6.47;4.90;;;;;;;14.10;99.69;94915.53;5076102;28;20204;-76
2023/05/09 02:16:53;;;;;;;5.90;4.73;;;;;;;14.03;99.88;94915.69;5072839;28;20313;-76
2023/05/09 02:19:21;;;;;;;6.90;5.20;;;;;;;13.96;100.00;94907.19;5084792;28;20626;-76
2023/05/09 02:21:47;;;;;;;7.60;4.90;;;;;;;13.92;100.00;94903.44;5079030;28;20266;-76
2023/05/09 02:24:14;;;;;;;5.30;4.70;;;;;;;13.90;100.00;94904.72;5070010;28;20233;-76
2023/05/09 02:26:41;;;;;;;5.90;4.80;;;;;;;13.91;99.66;94904.47;5057981;28;20190;-76
2023/05/09 02:29:10;;;;;;;6.30;4.67;;;;;;;13.92;99.64;94908.66;5051864;28;20205;-76
2023/05/09 02:31:41;;;;;;;6.13;4.93;;;;;;;13.86;99.73;94900.97;5057258;28;20298;-76
2023/05/09 02:34:09;;;;;;;6.07;4.47;;;;;;;13.95;99.46;94912.63;5060071;28;20202;-76
2023/05/09 02:36:38;;;;;;;5.93;4.60;;;;;;;13.90;100.00;94915.16;5057893;28;20312;-76
2023/05/09 02:39:06;;;;;;;5.60;4.73;;;;;;;13.89;100.00;94913.56;5058778;28;21146;-76
2023/05/09 02:41:32;;;;;;;5.90;4.60;;;;;;;13.89;99.65;94903.09;5051590;28;20190;-75
2023/05/09 02:43:59;;;;;;;6.40;4.93;;;;;;;13.90;99.95;94907.31;5055487;28;20194;-75
2023/05/09 02:46:26;;;;;;;8.70;5.03;;;;;;;13.80;100.00;94904.50;5051075;28;20195;-75
2023/05/09 02:48:53;;;;;;;6.80;4.97;;;;;;;13.79;100.00;94905.53;5057518;28;20256;-75
2023/05/09 02:51:20;;;;;;;5.47;4.77;;;;;;;13.67;100.00;94887.28;5052996;28;20197;-75
2023/05/09 02:53:48;;;;;;;6.47;5.03;;;;;;;13.71;100.00;94906.66;5049467;28;20193;-75
2023/05/09 02:56:14;;;;;;;6.00;4.97;;;;;;;13.76;100.00;94911.22;5058488;28;20198;-75
2023/05/09 02:58:41;;;;;;;7.03;5.00;;;;;;;13.75;100.00;94905.19;5049300;28;20293;-75
2023/05/09 03:01:08;;;;;;;8.47;5.10;;;;;;;13.70;100.00;94902.50;5060532;28;20257;-75
2023/05/09 03:03:35;;;;;;;7.30;4.93;;;;;;;13.69;100.00;94913.16;5052328;28;20210;-74
2023/05/09 03:06:02;;;;;;;5.77;4.90;;;;;;;13.55;100.00;94907.41;5052116;28;20201;-75
2023/05/09 03:08:29;;;;;;;7.23;5.40;;;;;;;13.47;100.00;94907.75;5052368;28;20202;-75
2023/05/09 03:10:57;;;;;;;11.37;5.23;;;;;;;13.38;100.00;94909.91;5055861;28;20202;-75
2023/05/09 03:13:24;;;;;;;6.50;5.27;;;;;;;13.38;100.00;94917.75;5050359;28;20198;-74
2023/05/09 03:15:51;;;;;;;9.10;5.33;;;;;;;13.37;100.00;94916.16;5049196;28;20206;-75
2023/05/09 03:18:18;;;;;;;7.33;5.33;;;;;;;13.31;100.00;94929.31;5054262;28;20221;-76
2023/05/09 03:20:45;;;;;;;7.70;5.50;;;;;;;13.29;100.00;94936.59;5051010;28;20226;-76
2023/05/09 03:23:12;;;;;;;7.63;5.63;;;;;;;13.26;100.00;94937.84;5049745;28;20241;-76
2023/05/09 03:25:39;;;;;;;8.13;5.60;;;;;;;13.15;100.00;94949.06;5076539;28;20725;-76
2023/05/09 03:28:09;;;;;;;8.73;5.53;;;;;;;13.08;100.00;94949.19;5075599;28;20258;-75
2023/05/09 03:30:36;;;;;;;6.80;5.47;;;;;;;13.04;100.00;94949.84;5074619;28;20202;-75
2023/05/09 03:33:05;;;;;;;7.97;5.87;;;;;;;13.08;100.00;94953.59;5079023;28;20208;-76
2023/05/09 03:35:31;;;;;;;10.67;6.57;;;;;;;13.07;100.00;94950.19;5075298;28;20205;-76
2023/05/09 03:37:58;;;;;;;8.80;6.23;;;;;;;13.15;100.00;94958.72;5070501;28;20225;-79
2023/05/09 03:40:25;;;;;;;8.20;6.40;;;;;;;13.18;100.00;94959.06;5084548;28;20614;-78
2023/05/09 03:42:52;;;;;;;13.37;6.87;;;;;;;13.23;100.00;94959.16;5074247;28;20574;-79
2023/05/09 03:45:20;;;;;;;8.30;6.73;;;;;;;13.29;100.00;94957.47;5074501;28;20644;-79
2023/05/09 03:47:47;;;;;;;9.10;6.40;;;;;;;13.28;100.00;94954.06;5076543;28;20636;-79
2023/05/09 03:50:16;;;;;;;9.97;6.83;;;;;;;13.25;100.00;94949.28;5071868;28;20193;-79
2023/05/09 03:52:43;;;;;;;11.07;6.47;;;;;;;13.29;100.00;94963.50;5073294;28;20193;-79
2023/05/09 03:55:10;;;;;;;11.23;6.77;;;;;;;13.37;100.00;94957.94;5076585;28;20560;-79
2023/05/09 03:57:37;;;;;;;8.43;6.17;;;;;;;13.40;100.00;94956.66;5072363;28;20709;-79
2023/05/09 04:00:06;;;;;;;8.57;6.83;;;;;;;13.50;100.00;94959.53;5074203;28;20201;-79
2023/05/09 04:02:35;;;;;;;11.87;6.67;;;;;;;13.40;100.00;94941.81;5070230;28;20908;-79
2023/05/09 04:05:02;;;;;;;9.17;6.33;;;;;;;13.53;100.00;94957.22;5069434;28;20664;-79
2023/05/09 04:07:29;;;;;;;10.43;6.40;;;;;;;13.52;100.00;94949.63;5069428;28;20204;-79
2023/05/09 04:09:56;;;;;;;7.30;6.23;;;;;;;13.59;100.00;94958.16;5070621;28;20612;-79
2023/05/09 04:12:23;;;;;;;8.10;6.30;;;;;;;13.63;100.00;94962.69;5071775;28;20205;-79
2023/05/09 04:14:50;;;;;;;10.23;6.67;;;;;;;13.60;100.00;94949.28;5074411;28;20196;-79
2023/05/09 04:17:17;;;;;;;12.07;6.77;;;;;;;13.59;100.00;94961.53;5072303;28;20300;-78
2023/05/09 04:19:45;;;;;;;7.67;6.43;;;;;;;13.63;100.00;94972.31;5075078;28;20557;-79
2023/05/09 04:22:12;;;;;;;10.33;5.73;;;;;;;13.62;100.00;94971.53;5072297;28;20193;-79
2023/05/09 04:24:39;;;;;;;11.50;5.87;;;;;;;13.68;100.00;94969.81;5075635;28;20229;-79
2023/05/09 04:27:06;;;;;;;8.53;5.87;;;;;;;13.71;100.00;94968.59;5074310;28;20304;-77
2023/05/09 04:29:33;;;;;;;9.30;6.70;;;;;;;13.82;100.00;94962.56;5071974;28;20202;-76
2023/05/09 04:32:00;;;;;;;11.90;6.83;;;;;;;13.79;100.00;94960.41;5076580;28;20640;-77
2023/05/09 04:34:28;;;;;;;9.03;6.37;;;;;;;13.83;100.00;94972.75;5073488;28;20246;-78
2023/05/09 04:36:56;;;;;;;8.37;6.10;;;;;;;13.82;100.00;94965.16;5072905;28;20223;-78
2023/05/09 04:39:23;;;;;;;9.67;6.00;;;;;;;13.92;100.00;94970.59;5073169;28;20231;-77
2023/05/09 04:41:51;;;;;;;9.60;5.60;;;;;;;13.95;100.00;94970.94;5072521;28;20189;-78
2023/05/09 04:44:18;;;;;;;8.60;6.33;;;;;;;14.00;100.00;94972.84;5072840;28;20221;-78
2023/05/09 04:46:45;;;;;;;8.87;5.97;;;;;;;13.99;100.00;94971.25;5072101;28;20193;-79
2023/05/09 04:49:12;;;;;;;9.60;6.73;;;;;;;13.87;100.00;94973.09;5072503;28;20216;-79
2023/05/09 04:51:39;;;;;;;9.27;7.23;;;;;;;13.96;100.00;94976.94;5074252;28;20251;-80
2023/05/09 04:54:07;;;;;;;10.80;7.90;;;;;;;13.95;100.00;94970.94;5078663;28;20775;-79
2023/05/09 04:56:34;;;;;;;9.63;7.93;;;;;;;13.93;100.00;94977.41;5074453;28;20653;-78
2023/05/09 04:59:00;;;;;;;11.33;7.87;;;;;;;13.78;100.00;94966.63;5073446;28;20228;-78
2023/05/09 05:01:27;;;;;;;8.93;6.87;;;;;;;13.73;100.00;94967.34;5076406;28;20197;-78
2023/05/09 05:03:54;;;;;;;12.10;7.60;;;;;;;13.69;100.00;94974.03;5072962;28;20657;-78
2023/05/09 05:06:21;;;;;;;10.90;7.00;;;;;;;13.72;100.00;94976.19;5074520;28;20197;-79
2023/05/09 05:08:47;;;;;;;11.30;7.23;;;;;;;13.76;100.00;94968.69;5075737;28;20249;-77
2023/05/09 05:11:16;;;;;;;11.00;7.17;;;;;;;13.88;100.00;94965.00;5072357;28;20647;-78
2023/05/09 05:13:43;;;;;;;10.37;6.80;;;;;;;13.97;100.00;94970.69;5074269;28;20275;-78
2023/05/09 05:16:10;;;;;;;10.07;6.63;;;;;;;14.02;100.00;94961.16;5075521;28;20201;-78
2023/05/09 05:18:37;;;;;;;12.53;7.20;;;;;;;14.13;100.00;94964.75;5075750;28;20225;-79
2023/05/09 05:21:04;;;;;;;10.87;6.50;;;;;;;14.15;100.00;94966.09;5069558;28;20209;-78
2023/05/09 05:23:30;;;;;;;5.53;4.90;;;;;;;14.17;100.00;94968.47;5077205;28;20198;-78
2023/05/09 05:25:58;;;;;;;6.27;4.77;;;;;;;14.17;100.00;94968.47;5057153;28;20667;-79
2023/05/09 05:28:30;;;;;;;5.70;4.27;;;;;;;14.27;100.00;94968.69;5054214;28;20221;-78
2023/05/09 05:31:01;;;;;;;5.80;4.30;;;;;;;14.33;100.00;94972.22;5054454;28;20202;-79
2023/05/09 05:33:28;;;;;;;5.50;4.90;;;;;;;14.32;100.00;94968.78;5063505;28;20186;-79
2023/05/09 05:35:54;;;;;;;4.47;3.90;;;;;;;14.34;100.00;94971.19;5057749;28;20193;-79
2023/05/09 05:38:21;;;;;;;8.17;4.53;;;;;;;14.37;98.56;94975.97;5053098;28;20287;-79
2023/05/09 05:40:50;;;;;;;7.13;4.17;;;;;;;14.40;99.11;94978.13;5053391;28;20195;-80
2023/05/09 05:43:17;;;;;;;4.27;3.30;;;;;;;14.42;98.36;94974.22;5054924;28;20197;-79
2023/05/09 05:45:45;;;;;;;4.00;3.30;;;;;;;14.54;97.38;94977.59;5054438;28;20198;-76
2023/05/09 05:48:12;;;;;;;4.83;3.30;;;;;;;14.59;96.41;94975.06;5058624;28;20190;-76
2023/05/09 05:50:39;;;;;;;3.97;3.13;;;;;;;14.66;95.21;94980.94;5055357;28;20225;-79
2023/05/09 05:53:06;;;;;;;4.63;3.00;;;;;;;14.62;94.09;94977.22;5052708;28;20206;-78
2023/05/09 05:55:33;;;;;;;5.23;3.10;;;;;;;14.68;94.56;94983.34;5056905;28;20254;-77
2023/05/09 05:57:59;;;;;;;3.20;2.90;;;;;;;14.73;94.02;94983.41;5054281;28;20221;-79
2023/05/09 06:00:27;;;;;;;4.50;3.40;;;;;;;14.73;94.00;94994.69;5057518;28;20204;-78
2023/05/09 06:02:55;;;;;;;4.67;3.10;;;;;;;14.63;94.04;94978.78;5054056;28;20214;-77
2023/05/09 06:05:22;;;;;;;3.67;3.03;;;;;;;14.67;93.43;94973.88;5050466;28;20645;-77
2023/05/09 06:07:48;;;;;;;3.30;3.00;;;;;;;14.73;93.01;94988.66;5059414;28;20198;-78
2023/05/09 06:10:16;;;;;;;4.70;2.97;;;;;;;14.81;92.33;94984.84;5061247;28;20193;-78
2023/05/09 06:12:42;;;;;;;3.27;2.60;;;;;;;14.73;90.90;94971.13;5051637;28;20209;-77
2023/05/09 06:15:10;;;;;;;5.97;3.40;;;;;;;14.82;91.32;94983.81;5054726;28;20202;-79
2023/05/09 06:17:37;;;;;;;4.43;3.00;;;;;;;14.77;90.48;94989.78;5053128;28;20337;-80
2023/05/09 06:20:06;;;;;;;4.40;3.03;;;;;;;14.73;89.03;94976.38;5060059;28;20224;-80
2023/05/09 06:22:33;;;;;;;3.40;3.10;;;;;;;14.72;89.48;94972.16;5054070;28;20213;-78
2023/05/09 06:25:00;;;;;;;3.30;3.00;;;;;;;14.81;89.59;94969.16;5066980;28;20229;-79
2023/05/09 06:27:27;;;;;;;4.73;3.07;;;;;;;14.74;87.61;94975.34;5065374;28;20193;-79
2023/05/09 06:29:53;;;;;;;3.40;2.67;;;;;;;14.90;87.43;94986.06;5075911;28;20210;-78
2023/05/09 06:32:20;;;;;;;5.53;3.27;;;;;;;15.01;87.46;94991.22;5076329;28;20192;-79
2023/05/09 06:34:47;;;;;;;4.50;2.77;;;;;;;15.11;86.74;94986.16;5067991;28;20194;-78
2023/05/09 06:37:15;;;;;;;4.07;2.73;;;;;;;15.10;87.34;94981.16;5069309;28;20214;-78
2023/05/09 06:39:42;;;;;;;3.57;2.37;;;;;;;15.03;87.10;94978.72;5079269;28;20201;-76
2023/05/09 06:42:09;;;;;;;3.13;2.43;;;;;;;15.04;86.73;94975.03;5071271;28;20194;-78
2023/05/09 06:44:36;;;;;;;4.40;3.03;;;;;;;15.10;87.99;94984.56;5070513;28;20275;-76
2023/05/09 06:47:03;;;;;;;4.00;2.93;;;;;;;15.07;88.33;94977.19;5075297;28;20200;-78
2023/05/09 06:49:30;;;;;;;2.60;2.40;;;;;;;15.15;87.66;94978.63;5069949;28;20374;-78
2023/05/09 06:51:56;;;;;;;8.50;4.13;;;;;;;15.14;87.74;94974.44;5070411;28;20200;-78
2023/05/09 06:54:24;;;;;;;4.03;3.00;;;;;;;15.21;88.14;94975.84;5078852;28;20197;-77
2023/05/09 06:56:51;;;;;;;3.90;2.50;;;;;;;15.25;88.19;94981.41;5068982;28;20262;-79
2023/05/09 06:59:18;;;;;;;3.53;2.53;;;;;;;15.38;87.67;94991.56;5070504;28;21120;-78
2023/05/09 07:01:46;;;;;;;4.17;2.57;;;;;;;15.49;86.53;94990.72;5078993;28;20190;-77
2023/05/09 07:04:13;;;;;;;8.77;2.33;;;;;;;15.53;86.81;94980.53;5079601;22;20244;-78
2023/05/09 07:06:40;;;;;;;2.70;2.40;;;;;;;15.55;84.97;94976.66;5080904;28;20200;-78
2023/05/09 07:09:07;;;;;;;3.60;2.40;;;;;;;15.66;84.10;94988.06;5094866;28;20197;-77
2023/05/09 07:11:36;;;;;;;7.93;2.60;;;;;;;15.73;84.75;94979.00;5090444;28;20232;-77
2023/05/09 07:14:20;;;;;;;4.03;3.00;;;;;;;15.64;84.18;94974.44;5089624;28;20585;-79
2023/05/09 07:16:48;;;;;;;5.00;3.67;;;;;;;15.63;83.67;94965.78;5093911;28;20201;-77
2023/05/09 07:19:15;;;;;;;5.40;2.20;;;;;;;15.68;83.68;94973.69;5089670;28;20274;-77
2023/05/09 07:21:41;;;;;;;3.53;2.50;;;;;;;15.78;83.36;94984.31;5088619;28;20204;-77
2023/05/09 07:24:08;;;;;;;3.20;2.30;;;;;;;15.77;84.18;94974.06;5094373;28;20197;-76
2023/05/09 07:26:36;;;;;;;4.93;2.50;;;;;;;15.57;84.29;94982.44;5090543;28;21039;-76
2023/05/09 07:29:03;;;;;;;5.33;2.50;;;;;;;15.35;84.59;94977.09;5089943;28;20234;-76
2023/05/09 07:31:30;;;;;;;2.60;2.40;;;;;;;14.85;86.03;94973.69;5094557;28;20254;-76
2023/05/09 07:33:57;;;;;;;3.77;2.57;;;;;;;14.87;87.40;94978.66;5088466;28;20207;-76
2023/05/09 07:36:24;;;;;;;3.80;2.50;;;;;;;15.05;87.05;94975.84;5092250;28;20207;-76
2023/05/09 07:38:52;;;;;;;7.83;2.90;;;;;;;15.20;86.79;94978.72;5094240;28;20219;-75
2023/05/09 07:41:19;;;;;;;2.83;2.20;;;;;;;15.34;85.72;94983.41;5091970;28;20282;-74
2023/05/09 07:43:47;;;;;;;3.23;2.50;;;;;;;15.57;84.54;94985.06;5088170;28;20192;-76
2023/05/09 07:46:14;;;;;;;4.40;2.87;;;;;;;15.66;83.83;94983.63;5092105;28;20291;-76
2023/05/09 07:48:41;;;;;;;3.40;2.60;;;;;;;15.79;81.95;94979.84;5091503;28;20192;-76
2023/05/09 07:51:08;;;;;;;4.93;2.77;;;;;;;15.82;82.25;94990.66;5090338;28;20271;-75
2023/05/09 07:53:35;;;;;;;3.10;2.60;;;;;;;15.89;81.94;94986.03;5093713;28;20210;-76
2023/05/09 07:56:01;;;;;;;2.80;2.47;;;;;;;16.01;81.12;94988.56;5080764;28;20202;-76
2023/05/09 07:58:28;;;;;;;4.10;2.50;;;;;;;16.05;80.49;94983.59;5091555;28;20249;-75
2023/05/09 08:00:57;;;;;;;4.27;2.90;;;;;;;16.06;80.69;94978.13;5093597;28;20201;-75
2023/05/09 08:03:26;;;;;;;3.27;2.70;;;;;;;16.15;80.27;94983.75;5090567;28;20192;-76
2023/05/09 08:05:55;;;;;;;4.23;2.60;;;;;;;16.12;78.86;94971.91;5083532;28;20197;-76
2023/05/09 08:08:22;;;;;;;3.77;3.00;;;;;;;15.98;78.63;94925.31;5085140;28;20664;-76
2023/05/09 08:10:49;;;;;;;5.53;2.60;;;;;;;16.28;78.12;94976.28;5091934;28;20201;-76
2023/05/09 08:13:17;;;;;;;4.00;2.37;;;;;;;16.34;77.67;94979.75;5085522;28;20192;-75
2023/05/09 08:15:44;;;;;;;3.40;2.80;;;;;;;16.36;77.85;94978.47;5085134;28;20201;-75
2023/05/09 08:18:12;;;;;;;3.30;3.00;;;;;;;16.50;78.16;94981.53;5085771;28;20229;-75
2023/05/09 08:20:39;;;;;;;5.97;2.40;;;;;;;16.63;77.61;94983.78;5083918;28;20192;-75
2023/05/09 08:23:06;;;;;;;3.53;2.30;;;;;;;16.76;76.65;94993.91;5087399;28;20205;-77
2023/05/09 08:25:33;;;;;;;2.63;2.23;;;;;;;16.77;76.34;94981.56;5089153;28;20208;-76
2023/05/09 08:28:00;;;;;;;3.07;2.23;;;;;;;16.92;75.64;94982.50;5077370;28;20195;-75
2023/05/09 08:30:28;;;;;;;4.23;2.50;;;;;;;17.01;76.12;94982.84;5087722;28;20203;-75
2023/05/09 08:32:55;;;;;;;2.57;2.03;;;;;;;17.16;76.03;94992.69;5083749;28;20220;-76
2023/05/09 08:35:23;;;;;;;3.97;2.10;;;;;;;17.35;74.99;94984.16;5082162;28;20208;-75
2023/05/09 08:37:50;;;;;;;1.95;1.83;;;;;;;17.49;72.30;94981.91;5087829;28;20220;-76
2023/05/09 08:40:18;;;;;;;3.08;1.83;;;;;;;17.53;72.94;94985.63;5089268;28;20324;-76
2023/05/09 08:42:45;;;;;;;2.53;2.08;;;;;;;17.42;72.01;94986.59;5082630;28;20567;-77
2023/05/09 08:45:14;;;;;;;3.17;2.30;;;;;;;16.97;74.70;94987.00;5088137;28;20200;-76
2023/05/09 08:47:42;;;;;;;4.17;1.90;;;;;;;16.29;76.97;94967.38;5093135;28;20195;-77
2023/05/09 08:50:16;;;;;;;3.60;2.20;;;;;;;16.17;79.18;94976.41;5085116;28;20258;-76
2023/05/09 08:52:55;;;;;;;6.13;2.17;;;;;;;15.88;78.89;94891.91;5087804;28;20227;-77
2023/05/09 08:58:32;;;;;;;5.40;1.90;;;;;;;15.93;77.52;94902.44;4993519;28;20701;-77
2023/05/09 09:01:00;;;;;;;3.77;1.90;;;;;;;16.13;77.67;94967.47;5085463;28;20246;-75
2023/05/09 09:03:27;;;;;;;3.63;1.60;;;;;;;16.04;75.89;94985.44;5092401;28;20200;-76
2023/05/09 09:05:55;;;;;;;1.93;1.30;;;;;;;15.88;76.49;94973.16;5090342;28;20211;-75
2023/05/09 09:08:23;;;;;;;1.53;1.33;;;;;;;15.77;76.73;94979.31;5082006;28;20193;-76
2023/05/09 09:10:50;;;;;;;2.10;1.57;;;;;;;15.58;77.96;94968.31;5094622;28;20287;-76
2023/05/09 09:13:18;;;;;;;1.70;1.50;;;;;;;15.47;79.06;94968.41;5093311;28;20199;-74
2023/05/09 09:15:50;;;;;;;2.90;1.60;;;;;;;15.25;79.41;94968.31;5081907;28;20239;-76
2023/05/09 09:18:22;;;;;;;1.67;1.50;;;;;;;15.36;79.86;94964.81;5085684;28;20203;-77
2023/05/09 09:20:52;;;;;;;2.37;1.70;;;;;;;15.21;80.43;94970.59;5089168;28;20197;-76
2023/05/09 09:23:20;;;;;;;3.90;1.70;;;;;;;15.23;81.18;94975.63;5089762;28;20193;-77
2023/05/09 09:25:47;;;;;;;2.13;1.60;;;;;;;15.23;80.00;94973.00;5085771;28;20236;-77
2023/05/09 09:28:15;;;;;;;2.23;1.50;;;;;;;15.19;80.30;94970.06;5089933;28;20606;-76
2023/05/09 09:30:47;;;;;;;5.57;1.80;;;;;;;15.12;80.97;94968.63;5089809;28;20702;-75
2023/05/09 09:33:20;;;;;;;5.97;1.80;;;;;;;15.05;80.72;94973.22;5086485;28;20297;-77
2023/05/09 09:35:48;;;;;;;4.83;1.60;;;;;;;15.08;81.80;94970.94;5092874;28;20215;-80
2023/05/09 09:38:18;;;;;;;2.10;1.60;;;;;;;15.16;81.35;94972.34;5088806;28;20279;-78
2023/05/09 09:40:55;;;;;;;8.27;2.00;;;;;;;15.22;80.80;94966.97;5088226;28;20355;-77
2023/05/09 09:43:40;;;;;;;2.43;1.60;;;;;;;15.26;80.40;94969.91;5086600;28;20283;-78
2023/05/09 09:46:09;;;;;;;3.13;1.70;;;;;;;15.38;79.46;94975.06;5088876;28;20283;-78
2023/05/09 09:48:37;;;;;;;2.37;1.60;;;;;;;15.31;79.25;94973.41;5086354;28;20738;-78
2023/05/09 09:51:08;;;;;;;8.43;2.13;;;;;;;15.29;77.89;94969.44;5090535;28;20998;-76
2023/05/09 09:53:39;;;;;;;5.47;2.20;;;;;;;15.21;78.65;94964.56;5088439;28;21221;-77
2023/05/09 09:56:06;;;;;;;7.80;2.30;;;;;;;15.17;80.41;94976.56;5085107;28;20286;-77
2023/05/09 09:58:34;;;;;;;3.87;1.70;;;;;;;15.20;80.24;94963.81;5092016;28;20364;-76
2023/05/09 10:01:06;;;;;;;3.33;1.80;;;;;;;15.33;80.14;94967.91;5088984;28;20192;-76
2023/05/09 10:03:38;;;;;;;8.37;2.30;;;;;;;15.53;79.43;94972.66;5088298;28;20196;-76
2023/05/09 10:06:09;;;;;;;30.60;2.80;;;;;;;15.63;79.48;94964.97;5090319;28;20205;-75
2023/05/09 10:08:38;;;;;;;4.73;2.70;;;;;;;15.74;80.14;94964.88;5097120;28;20244;-78
2023/05/09 10:11:07;;;;;;;3.73;2.20;;;;;;;15.58;80.72;94959.66;5089810;28;20793;-76
2023/05/09 10:13:38;;;;;;;5.23;2.40;;;;;;;15.24;81.70;94922.19;5093137;28;20641;-77
2023/05/09 10:16:07;;;;;;;2.03;1.90;;;;;;;15.05;82.35;94873.75;5095233;28;20666;-76
2023/05/09 10:18:39;;;;;;;3.37;2.07;;;;;;;15.78;81.00;94959.94;5091533;28;20294;-76
2023/05/09 10:21:10;;;;;;;2.33;2.13;;;;;;;15.84;79.22;94919.66;5088418;28;20899;-78
2023/05/09 10:23:43;;;;;;;3.20;2.70;;;;;;;16.21;77.92;94933.72;5093500;28;20562;-76
2023/05/09 10:26:16;;;;;;;3.07;2.77;;;;;;;16.62;76.94;94960.44;5092064;28;20197;-77
2023/05/09 10:28:46;;;;;;;6.90;3.77;;;;;;;16.86;75.22;94959.88;5090637;28;20265;-77
2023/05/09 10:31:18;;;;;;;3.50;2.57;;;;;;;16.96;74.70;94957.34;5090594;28;20208;-77
2023/05/09 10:33:47;;;;;;;3.90;2.70;;;;;;;16.99;75.08;94951.59;5092669;28;20219;-77
2023/05/09 10:36:19;;;;;;;4.43;2.40;;;;;;;17.05;75.73;94949.78;5085093;28;20215;-77
2023/05/09 10:38:47;;;;;;;2.63;2.43;;;;;;;17.16;75.65;94948.81;5090274;28;20250;-78
2023/05/09 10:41:18;;;;;;;4.20;2.60;;;;;;;17.46;74.66;94956.91;5094859;28;20662;-77
2023/05/09 10:43:53;;;;;;;4.15;2.60;;;;;;;17.82;72.13;94947.44;5090934;28;20202;-78
2023/05/09 10:46:22;;;;;;;3.05;2.40;;;;;;;18.08;71.64;94959.69;5089919;28;20196;-77
2023/05/09 10:48:49;;;;;;;2.40;2.20;;;;;;;18.30;69.85;94954.22;5093228;28;20196;-76
2023/05/09 10:51:18;;;;;;;3.80;2.40;;;;;;;18.35;70.55;94953.47;5079506;28;20274;-79
2023/05/09 10:53:47;;;;;;;2.30;2.10;;;;;;;18.35;68.74;94958.72;5084117;28;20931;-77
2023/05/09 10:56:25;;;;;;;4.57;2.33;;;;;;;18.21;68.39;94962.88;5091600;28;20204;-77
2023/05/09 10:58:53;;;;;;;2.65;2.35;;;;;;;18.10;67.36;94960.19;5090668;28;20203;-76
2023/05/09 11:01:31;;;;;;;5.22;2.28;;;;;;;18.03;68.92;94945.72;5088223;28;20203;-76
2023/05/09 11:04:00;;;;;;;4.18;2.40;;;;;;;18.12;69.61;94955.47;5096339;28;20603;-78
2023/05/09 11:06:58;;;;;;;4.00;2.90;;;;;;;18.47;68.29;94952.16;5086631;28;20287;-78
2023/05/09 11:09:27;;;;;;;3.85;2.78;;;;;;;18.67;66.75;94960.13;5024108;28;20230;-78
2023/05/09 11:11:56;;;;;;;3.33;2.58;;;;;;;18.92;66.33;94967.31;5077564;28;20216;-78
2023/05/09 11:14:30;;;;;;;3.47;2.60;;;;;;;18.94;66.12;94967.03;5093399;28;20203;-78
2023/05/09 11:17:01;;;;;;;3.28;2.80;;;;;;;18.96;64.65;94955.19;5084964;28;20276;-77
2023/05/09 11:19:38;;;;;;;3.25;2.90;;;;;;;19.08;63.94;94958.34;5091246;28;20239;-76
2023/05/09 11:22:13;;;;;;;9.93;2.90;;;;;;;19.18;64.30;94962.84;5098313;28;20671;-76
2023/05/09 11:24:44;;;;;;;4.53;3.10;;;;;;;19.13;64.90;94952.31;5091841;28;20219;-78
2023/05/09 11:27:20;;;;;;;3.70;2.90;;;;;;;19.34;65.27;94972.31;5090765;28;20203;-76
2023/05/09 11:29:50;;;;;;;3.30;2.80;;;;;;;19.47;63.82;94960.50;5093815;28;20207;-78
2023/05/09 11:32:18;;;;;;;5.40;3.28;;;;;;;19.63;63.94;94962.03;5091370;28;20275;-76
2023/05/09 11:34:46;;;;;;;3.63;3.10;;;;;;;19.78;62.95;94956.75;5093602;28;20203;-77
2023/05/09 11:37:18;;;;;;;5.57;3.30;;;;;;;19.86;62.40;94956.19;5088842;28;20196;-76